Flight Track Log - Related Links

Times and Time Zones

All times are in EDT time to prevent confusion due to time zone crossing. See the AWE1940 flight status page for this flight to view local times or setup timezone preferences in your user account.

Time Position Orientation Groundspeed Altitude Reporting Facility
EDT Latitude Longitude Course Direction KTS MPH feet Rate Location/Type
Fri 10:37:01 PM 35.2347 -80.9392 72° East 174 200 1,700  Level Atlanta Center
Fri 10:38:08 PM 35.2883 -80.9167 19° North 224 258 3,800 2,315 Climbing Atlanta Center
Fri 10:39:00 PM 35.1712 -80.5859 29° Northeast  Level FlightAware
Fri 10:39:08 PM 35.2986 -80.8297 82° East 275 316 6,600  Level Atlanta Center
Fri 10:40:00 PM 35.2862 -80.5051 30° Northeast  Level FlightAware
Fri 10:40:08 PM 35.2919 -80.7308 95° East 287 330 7,900  Level Atlanta Center
Fri 10:41:00 PM 35.3540 -80.3885 72° East  Level FlightAware
Fri 10:41:08 PM 35.2975 -80.6339 86° East 312 359 10,500  Level Atlanta Center
Fri 10:42:00 PM 35.3947 -80.2337 72° East  Level FlightAware
Fri 10:42:08 PM 35.3214 -80.5183 76° East 328 377 11,700  Level Atlanta Center
Fri 10:43:08 PM 35.3517 -80.4128 71° East 353 406 13,900 2,161 Climbing Atlanta Center
Fri 10:45:14 PM 35.4358 -80.1272 70° East 400 460 18,400 1,968 Climbing Washington Center
Fri 10:46:14 PM 35.4675 -80.0067 72° East 410 472 20,000 1,750 Climbing Washington Center
Fri 10:47:14 PM 35.5081 -79.8608 71° East 424 488 21,900 1,850 Climbing Washington Center
Fri 10:48:14 PM 35.5425 -79.7147 74° East 434 499 23,700 1,636 Climbing Washington Center
Fri 10:49:15 PM 35.5833 -79.5608 72° East 452 520 25,200 1,475 Climbing Washington Center
Fri 10:50:16 PM 35.6189 -79.4272 72° East 459 528 26,700 1,388 Climbing Washington Center
Fri 10:51:16 PM 35.6756 -79.2817 64° Northeast 446 513 28,000 661 Climbing Washington Center
Fri 10:52:14 PM 35.7319 -79.1436 63° Northeast 440 506 28,000  Level Washington Center
Fri 10:53:16 PM 35.7861 -79.0078 64° Northeast 440 506 28,000  Level Washington Center
Fri 10:54:14 PM 35.8400 -78.8717 64° Northeast 440 506 28,000  Level Washington Center
Fri 10:55:14 PM 35.8978 -78.7383 62° Northeast 440 506 28,000 555 Level Washington Center
Fri 10:56:13 PM 35.9617 -78.6047 59° Northeast 435 501 29,100 1,250 Climbing Washington Center
Fri 10:57:14 PM 36.0256 -78.4736 59° Northeast 441 507 30,500 1,082 Climbing Washington Center
Fri 10:58:15 PM 36.0889 -78.3422 59° Northeast 441 507 31,300 793 Climbing Washington Center
Fri 10:59:15 PM 36.1567 -78.2058 58° Northeast 446 513 32,100 850 Climbing Washington Center
Fri 11:00:15 PM 36.2200 -78.0714 60° Northeast 446 513 33,000 454 Climbing Washington Center
Fri 11:01:14 PM 36.2833 -77.9317 61° Northeast 451 519 33,000  Level Washington Center
Fri 11:02:15 PM 36.3508 -77.7944 59° Northeast 456 525 33,000  Level Washington Center
Fri 11:03:15 PM 36.4222 -77.6414 60° Northeast 456 525 33,000  Level Washington Center
Fri 11:04:14 PM 36.4786 -77.5164 61° Northeast 456 525 33,000  Level Washington Center
Fri 11:05:16 PM 36.5456 -77.3758 59° Northeast 462 532 33,000  Level Washington Center
Fri 11:06:14 PM 36.6100 -77.2325 61° Northeast 462 532 33,000  Level Washington Center
Fri 11:07:15 PM 36.6831 -77.0758 60° Northeast 469 540 33,000  Level Washington Center
Fri 11:08:15 PM 36.7719 -76.9611 46° Northeast 469 540 33,000  Level Washington Center
Fri 11:09:14 PM 36.8775 -76.8667 36° Northeast 455 524 33,000  Level Washington Center
Fri 11:10:15 PM 36.9806 -76.7697 37° Northeast 461 531 33,000  Level Washington Center
Fri 11:11:14 PM 37.0878 -76.6750 35° Northeast 461 531 33,000  Level Washington Center
Fri 11:12:15 PM 37.1953 -76.5747 37° Northeast 466 536 33,000  Level Washington Center
Fri 11:13:14 PM 37.3003 -76.4794 36° Northeast 466 536 33,000  Level Washington Center
Fri 11:14:14 PM 37.4094 -76.3814 35° Northeast 472 543 33,000  Level Washington Center
Fri 11:15:14 PM 37.5058 -76.2908 37° Northeast 477 549 33,000  Level Washington Center
Fri 11:16:16 PM 37.6128 -76.1922 36° Northeast 477 549 33,000  Level Washington Center
Fri 11:17:14 PM 37.7322 -76.0906 34° Northeast 477 549 33,000  Level Washington Center
Fri 11:18:15 PM 37.8242 -75.9939 40° Northeast 472 543 33,000  Level Washington Center
Fri 11:19:14 PM 37.9331 -75.8944 36° Northeast 472 543 33,000  Level Washington Center
Fri 11:20:14 PM 38.0417 -75.8028 34° Northeast 472 543 33,000  Level Washington Center
Fri 11:21:16 PM 38.1458 -75.6972 39° Northeast 477 549 33,000  Level Washington Center
Fri 11:22:17 PM 38.2525 -75.5944 37° Northeast 482 555 33,000  Level Washington Center
Fri 11:23:16 PM 38.3669 -75.5042 32° Northeast 482 555 33,000  Level Washington Center
Fri 11:24:15 PM 38.4942 -75.4483 19° North 477 549 33,000  Level Washington Center
Fri 11:25:16 PM 38.6233 -75.3950 18° North 477 549 33,000  Level Washington Center
Fri 11:26:14 PM 38.7567 -75.3442 17° North 482 555 33,000  Level Washington Center
Fri 11:27:14 PM 38.8858 -75.2822 20° North 482 555 33,000  Level Washington Center
Fri 11:28:15 PM 39.0169 -75.2308 17° North 487 560 33,000  Level Washington Center
Fri 11:29:16 PM 39.1503 -75.1742 18° North 487 560 33,000  Level Washington Center
Fri 11:30:16 PM 39.2811 -75.1144 19° North 492 566 33,000 -50 Level Washington Center
Fri 11:31:16 PM 39.3975 -75.0169 33° Northeast 487 560 32,900  Descending Washington Center
Fri 11:32:14 PM 39.5053 -74.9083 38° Northeast 487 560 33,000 41 Climbing Washington Center
Fri 11:33:41 PM 39.6756 -74.7467 36° Northeast 500 575 33,000  Level New Center
Fri 11:34:39 PM 39.7856 -74.6311 39° Northeast 500 575 33,000  Level New Center
Fri 11:35:40 PM 39.8978 -74.5211 37° Northeast 500 575 33,000  Level New Center
Fri 11:36:41 PM 40.0075 -74.4106 38° Northeast 505 581 33,000  Level New Center
Fri 11:37:40 PM 40.1194 -74.2942 38° Northeast 505 581 33,000  Level New Center
Fri 11:38:41 PM 40.2311 -74.1828 37° Northeast 505 581 33,000  Level New Center
Fri 11:39:40 PM 40.3506 -74.0853 32° Northeast 505 581 33,000  Level New Center
Fri 11:40:39 PM 40.4858 -74.0183 21° North 505 581 33,000  Level New Center
Fri 11:41:40 PM 40.6208 -73.9508 21° North 505 581 33,000  Level New Center
Fri 11:43:27 PM 40.8458 -73.7956 28° Northeast 503 579 33,000  Level Boston Center
Fri 11:44:27 PM 40.9475 -73.6631 45° Northeast 503 579 33,000  Level Boston Center
Fri 11:45:27 PM 41.0422 -73.5547 41° Northeast 505 581 33,000  Level Boston Center
Fri 11:46:27 PM 41.1456 -73.4297 42° Northeast 498 573 33,000  Level Boston Center
Fri 11:47:27 PM 41.2572 -73.2933 43° Northeast 498 573 33,000 -655 Level Boston Center
Fri 11:48:26 PM 41.3764 -73.2203 25° Northeast 503 579 31,700 -1,950 Descending Boston Center
Fri 11:49:27 PM 41.4989 -73.3047 333° Northwest 446 513 29,100 -2,331 Descending Boston Center
Fri 11:50:27 PM 41.5619 -73.4861 295° West 394 453 27,000 -1,311 Descending Boston Center
Fri 11:51:26 PM 41.6189 -73.6342 297° West 420 483 26,500 -1,511 Descending Boston Center
Fri 11:52:38 PM 41.6797 -73.7825 299° West 420 483 23,700 -2,481 Descending Boston Center
Fri 11:53:39 PM 41.7258 -73.9200 294° West 414 476 21,000 -2,975 Descending Boston Center
Fri 11:54:39 PM 41.8228 -74.0000 328° Northwest 366 421 17,700 -3,065 Descending Boston Center
Fri 11:55:11 PM 41.8833 -73.9933 North 411 473 16,300 -2,250 Descending Boston Center
Fri 11:55:51 PM 41.9522 -73.9756 11° North 366 421 15,000 -1,808 Descending Boston Center
Fri 11:56:24 PM 42.0150 -73.9631 North 387 445 14,100 -1,900 Descending Boston Center
Fri 11:56:51 PM 42.0569 -73.9528 10° North 378 435 13,100 -2,000 Descending Boston Center
Fri 11:57:24 PM 42.1153 -73.9403 North 366 421 12,100 -1,600 Descending Boston Center
Fri 11:57:51 PM 42.1550 -73.9328 North 370 426 11,500 -1,082 Descending Boston Center
Fri 11:58:25 PM 42.2072 -73.9228 North 335 386 11,000 -1,300 Descending Boston Center
Fri 11:58:51 PM 42.2431 -73.9067 18° North 328 377 10,200 -1,574 Descending Boston Center
Fri 11:59:26 PM 42.2931 -73.8911 13° North 302 348 9,400 -1,200 Descending Boston Center
Fri 11:59:51 PM 42.3247 -73.8778 17° North 305 351 9,000 -1,200 Descending Boston Center
Sat 12:00:26 AM 42.3706 -73.8647 12° North 287 330 8,200 -1,300 Descending Boston Center
Sat 12:00:51 AM 42.4000 -73.8514 18° North 286 329 7,700 -1,377 Descending Boston Center
Sat 12:01:27 AM 42.4439 -73.8411 10° North 264 304 6,800 -1,400 Descending Boston Center
Sat 12:01:51 AM 42.4711 -73.8278 20° North 268 308 6,300 -1,100 Descending Boston Center
Sat 12:02:27 AM 42.5067 -73.8144 15° North 234 269 5,700 -1,500 Descending Boston Center
Sat 12:02:51 AM 42.5297 -73.8067 14° North 229 264 4,800 -1,967 Descending Boston Center
Sat 12:03:28 AM 42.5653 -73.8017 North 187 215 3,700 -1,300 Descending Boston Center
Sat 12:03:51 AM 42.5819 -73.7992 North 199 229 3,500 -787 Descending Boston Center
Sat 12:04:29 AM 42.6089 -73.8025 355° North 152 175 2,900 -800 Descending Boston Center
Sat 12:04:51 AM 42.6194 -73.8028 359° North 169 194 2,700 -778 Descending Boston Center
Sat 12:05:23 AM 42.6444 -73.8033 359° North 140 161 2,200 -200 Descending Boston Center
Sat 12:05:51 AM 42.6736 -73.7983 North 164 189 2,500 -787 Climbing Boston Center
Sat 12:06:24 AM 42.6819 -73.8042 333° Northwest 122 140 1,400 -1,097 Descending Boston Center
Sat 12:07:24 AM 42.7172 -73.8050 359° North 121 139 800 -600 Descending Boston Center

Login

Don't have an account? Register now (free) for customized features, flight alerts, and more!